Terminal Aerodrome Forecast
Issued by NWS

Home | Current Version | Previous Version | Text Only | Print | Product List | Glossary On
Versions: 1 2 3 4 5 6 7 8 9 10 11 12 13 14 15 16 17 18 19 20
000
FTUS43 KDVN 171700
TAFCID
TAF
KCID 171720Z 1718/1818 31020G27KT P6SM OVC025
     FM172300 31015G20KT P6SM OVC020
     FM180100 31010KT P6SM BKN020
     FM181200 33010KT P6SM BKN020=

USA.gov is the U.S. government's official web portal to all federal, state and local government web resources and services.